sensor_id;sensor_type;location;lat;lon;timestamp;P1;durP1;ratioP1;P2;durP2;ratioP2
8297;SDS011;4187;42.778;23.242;2023-03-26T00:01:25;0.90;;;0.77;;
8297;SDS011;4187;42.778;23.242;2023-03-26T00:03:54;0.80;;;0.70;;
8297;SDS011;4187;42.778;23.242;2023-03-26T00:06:22;0.88;;;0.60;;
8297;SDS011;4187;42.778;23.242;2023-03-26T00:08:52;0.80;;;0.70;;
8297;SDS011;4187;42.778;23.242;2023-03-26T00:11:19;0.98;;;0.70;;
8297;SDS011;4187;42.778;23.242;2023-03-26T00:13:48;1.17;;;0.90;;
8297;SDS011;4187;42.778;23.242;2023-03-26T00:16:18;1.00;;;0.70;;
8297;SDS011;4187;42.778;23.242;2023-03-26T00:18:46;5.87;;;2.00;;
8297;SDS011;4187;42.778;23.242;2023-03-26T00:21:13;1.50;;;0.90;;
8297;SDS011;4187;42.778;23.242;2023-03-26T00:23:41;3.10;;;1.20;;
8297;SDS011;4187;42.778;23.242;2023-03-26T00:26:10;1.00;;;0.87;;
8297;SDS011;4187;42.778;23.242;2023-03-26T00:28:38;0.90;;;0.80;;
8297;SDS011;4187;42.778;23.242;2023-03-26T00:31:06;1.60;;;0.83;;
8297;SDS011;4187;42.778;23.242;2023-03-26T00:33:36;1.00;;;0.70;;
8297;SDS011;4187;42.778;23.242;2023-03-26T00:36:05;0.70;;;0.60;;
8297;SDS011;4187;42.778;23.242;2023-03-26T00:38:35;1.10;;;0.60;;
8297;SDS011;4187;42.778;23.242;2023-03-26T00:41:03;1.20;;;1.10;;
8297;SDS011;4187;42.778;23.242;2023-03-26T00:43:33;2.70;;;2.17;;
8297;SDS011;4187;42.778;23.242;2023-03-26T00:46:01;2.13;;;1.20;;
8297;SDS011;4187;42.778;23.242;2023-03-26T00:48:28;1.27;;;1.00;;
8297;SDS011;4187;42.778;23.242;2023-03-26T00:50:55;0.93;;;0.83;;
8297;SDS011;4187;42.778;23.242;2023-03-26T00:53:22;1.20;;;0.77;;
8297;SDS011;4187;42.778;23.242;2023-03-26T00:55:49;1.17;;;0.90;;
8297;SDS011;4187;42.778;23.242;2023-03-26T00:58:16;1.30;;;0.90;;
8297;SDS011;4187;42.778;23.242;2023-03-26T01:00:52;0.73;;;0.70;;
8297;SDS011;4187;42.778;23.242;2023-03-26T01:03:21;1.20;;;1.00;;
8297;SDS011;4187;42.778;23.242;2023-03-26T01:05:49;0.80;;;0.70;;
8297;SDS011;4187;42.778;23.242;2023-03-26T01:08:22;1.13;;;0.77;;
8297;SDS011;4187;42.778;23.242;2023-03-26T01:10:55;1.07;;;0.80;;
8297;SDS011;4187;42.778;23.242;2023-03-26T01:13:30;1.33;;;0.60;;
8297;SDS011;4187;42.778;23.242;2023-03-26T01:15:59;1.50;;;0.93;;
8297;SDS011;4187;42.778;23.242;2023-03-26T01:18:29;1.40;;;0.90;;
8297;SDS011;4187;42.778;23.242;2023-03-26T01:20:58;0.70;;;0.70;;
8297;SDS011;4187;42.778;23.242;2023-03-26T01:23:34;1.00;;;0.80;;
8297;SDS011;4187;42.778;23.242;2023-03-26T01:26:08;2.00;;;0.73;;
8297;SDS011;4187;42.778;23.242;2023-03-26T01:28:45;0.97;;;0.80;;
8297;SDS011;4187;42.778;23.242;2023-03-26T01:31:13;1.30;;;0.90;;
8297;SDS011;4187;42.778;23.242;2023-03-26T01:33:51;0.83;;;0.70;;
8297;SDS011;4187;42.778;23.242;2023-03-26T01:36:24;1.00;;;0.80;;
8297;SDS011;4187;42.778;23.242;2023-03-26T01:38:58;3.03;;;0.70;;
8297;SDS011;4187;42.778;23.242;2023-03-26T01:41:32;2.00;;;0.70;;
8297;SDS011;4187;42.778;23.242;2023-03-26T01:44:08;0.70;;;0.60;;
8297;SDS011;4187;42.778;23.242;2023-03-26T01:46:40;1.50;;;0.80;;
8297;SDS011;4187;42.778;23.242;2023-03-26T01:49:08;2.87;;;2.20;;
8297;SDS011;4187;42.778;23.242;2023-03-26T01:51:38;3.20;;;2.90;;
8297;SDS011;4187;42.778;23.242;2023-03-26T01:54:07;3.47;;;1.37;;
8297;SDS011;4187;42.778;23.242;2023-03-26T01:56:40;0.87;;;0.77;;
8297;SDS011;4187;42.778;23.242;2023-03-26T01:59:23;1.50;;;1.40;;
8297;SDS011;4187;42.778;23.242;2023-03-26T02:02:02;1.87;;;1.40;;
8297;SDS011;4187;42.778;23.242;2023-03-26T02:04:37;3.23;;;2.93;;
8297;SDS011;4187;42.778;23.242;2023-03-26T02:07:09;6.17;;;3.90;;
8297;SDS011;4187;42.778;23.242;2023-03-26T02:09:42;1.30;;;1.13;;
8297;SDS011;4187;42.778;23.242;2023-03-26T02:12:15;1.10;;;0.90;;
8297;SDS011;4187;42.778;23.242;2023-03-26T02:14:43;1.53;;;1.00;;
8297;SDS011;4187;42.778;23.242;2023-03-26T02:17:11;1.10;;;1.00;;
8297;SDS011;4187;42.778;23.242;2023-03-26T02:19:38;2.77;;;2.03;;
8297;SDS011;4187;42.778;23.242;2023-03-26T02:22:06;3.17;;;1.60;;
8297;SDS011;4187;42.778;23.242;2023-03-26T02:24:35;4.00;;;2.27;;
8297;SDS011;4187;42.778;23.242;2023-03-26T02:27:03;2.90;;;2.00;;
8297;SDS011;4187;42.778;23.242;2023-03-26T02:29:39;3.90;;;2.57;;
8297;SDS011;4187;42.778;23.242;2023-03-26T02:32:08;4.80;;;2.17;;
8297;SDS011;4187;42.778;23.242;2023-03-26T02:34:37;3.00;;;2.03;;
8297;SDS011;4187;42.778;23.242;2023-03-26T02:37:04;2.27;;;1.80;;
8297;SDS011;4187;42.778;23.242;2023-03-26T02:39:31;1.47;;;1.30;;
8297;SDS011;4187;42.778;23.242;2023-03-26T02:41:58;1.60;;;1.30;;
8297;SDS011;4187;42.778;23.242;2023-03-26T02:44:25;1.33;;;1.20;;
8297;SDS011;4187;42.778;23.242;2023-03-26T02:46:53;1.30;;;1.20;;
8297;SDS011;4187;42.778;23.242;2023-03-26T02:49:21;3.80;;;1.27;;
8297;SDS011;4187;42.778;23.242;2023-03-26T02:51:48;2.53;;;1.50;;
8297;SDS011;4187;42.778;23.242;2023-03-26T02:54:15;2.47;;;1.60;;
8297;SDS011;4187;42.778;23.242;2023-03-26T02:56:42;1.40;;;1.30;;
8297;SDS011;4187;42.778;23.242;2023-03-26T02:59:09;1.50;;;1.33;;
8297;SDS011;4187;42.778;23.242;2023-03-26T03:01:36;2.73;;;1.43;;
8297;SDS011;4187;42.778;23.242;2023-03-26T03:04:08;1.57;;;1.47;;
8297;SDS011;4187;42.778;23.242;2023-03-26T03:06:35;3.87;;;1.77;;
8297;SDS011;4187;42.778;23.242;2023-03-26T03:09:03;1.20;;;1.10;;
8297;SDS011;4187;42.778;23.242;2023-03-26T03:11:31;2.57;;;1.73;;
8297;SDS011;4187;42.778;23.242;2023-03-26T03:13:57;1.37;;;1.27;;
8297;SDS011;4187;42.778;23.242;2023-03-26T03:16:24;2.40;;;1.67;;
8297;SDS011;4187;42.778;23.242;2023-03-26T03:18:51;1.83;;;1.30;;
8297;SDS011;4187;42.778;23.242;2023-03-26T03:21:22;1.93;;;1.70;;
8297;SDS011;4187;42.778;23.242;2023-03-26T03:23:49;1.73;;;1.60;;
8297;SDS011;4187;42.778;23.242;2023-03-26T03:26:16;1.70;;;1.60;;
8297;SDS011;4187;42.778;23.242;2023-03-26T03:28:46;1.90;;;1.47;;
8297;SDS011;4187;42.778;23.242;2023-03-26T03:31:13;2.10;;;1.90;;
8297;SDS011;4187;42.778;23.242;2023-03-26T03:33:40;3.57;;;3.23;;
8297;SDS011;4187;42.778;23.242;2023-03-26T03:36:07;3.00;;;2.53;;
8297;SDS011;4187;42.778;23.242;2023-03-26T03:38:36;2.73;;;2.53;;
8297;SDS011;4187;42.778;23.242;2023-03-26T03:41:04;2.77;;;1.90;;
8297;SDS011;4187;42.778;23.242;2023-03-26T03:43:31;2.00;;;1.80;;
8297;SDS011;4187;42.778;23.242;2023-03-26T03:45:58;2.13;;;1.93;;
8297;SDS011;4187;42.778;23.242;2023-03-26T03:48:25;2.70;;;2.10;;
8297;SDS011;4187;42.778;23.242;2023-03-26T03:50:53;2.40;;;2.00;;
8297;SDS011;4187;42.778;23.242;2023-03-26T03:53:20;1.93;;;1.73;;
8297;SDS011;4187;42.778;23.242;2023-03-26T03:55:51;2.37;;;2.17;;
8297;SDS011;4187;42.778;23.242;2023-03-26T03:58:18;2.20;;;2.00;;
8297;SDS011;4187;42.778;23.242;2023-03-26T04:00:46;3.67;;;2.40;;
8297;SDS011;4187;42.778;23.242;2023-03-26T04:03:14;2.40;;;2.20;;
8297;SDS011;4187;42.778;23.242;2023-03-26T04:05:41;2.70;;;2.50;;
8297;SDS011;4187;42.778;23.242;2023-03-26T04:08:13;3.70;;;3.13;;
8297;SDS011;4187;42.778;23.242;2023-03-26T04:10:41;5.63;;;3.00;;
8297;SDS011;4187;42.778;23.242;2023-03-26T04:13:10;4.83;;;3.50;;
8297;SDS011;4187;42.778;23.242;2023-03-26T04:15:37;6.63;;;4.83;;
8297;SDS011;4187;42.778;23.242;2023-03-26T04:18:05;5.83;;;5.00;;
8297;SDS011;4187;42.778;23.242;2023-03-26T04:20:34;10.53;;;6.70;;
8297;SDS011;4187;42.778;23.242;2023-03-26T04:23:02;5.03;;;4.37;;
8297;SDS011;4187;42.778;23.242;2023-03-26T04:25:29;5.90;;;4.27;;
8297;SDS011;4187;42.778;23.242;2023-03-26T04:27:58;5.73;;;4.10;;
8297;SDS011;4187;42.778;23.242;2023-03-26T04:30:33;6.13;;;5.03;;
8297;SDS011;4187;42.778;23.242;2023-03-26T04:33:00;7.07;;;5.87;;
8297;SDS011;4187;42.778;23.242;2023-03-26T04:35:30;11.50;;;7.10;;
8297;SDS011;4187;42.778;23.242;2023-03-26T04:37:59;5.60;;;5.10;;
8297;SDS011;4187;42.778;23.242;2023-03-26T04:40:30;5.17;;;4.67;;
8297;SDS011;4187;42.778;23.242;2023-03-26T04:42:58;4.70;;;4.30;;
8297;SDS011;4187;42.778;23.242;2023-03-26T04:45:27;4.90;;;4.20;;
8297;SDS011;4187;42.778;23.242;2023-03-26T04:47:56;6.27;;;5.20;;
8297;SDS011;4187;42.778;23.242;2023-03-26T04:50:24;7.53;;;6.83;;
8297;SDS011;4187;42.778;23.242;2023-03-26T04:52:52;7.90;;;7.20;;
8297;SDS011;4187;42.778;23.242;2023-03-26T04:55:23;5.33;;;4.87;;
8297;SDS011;4187;42.778;23.242;2023-03-26T04:57:54;7.50;;;6.80;;
8297;SDS011;4187;42.778;23.242;2023-03-26T05:00:24;6.33;;;5.57;;
8297;SDS011;4187;42.778;23.242;2023-03-26T05:02:52;6.13;;;5.60;;
8297;SDS011;4187;42.778;23.242;2023-03-26T05:05:23;5.67;;;5.17;;
8297;SDS011;4187;42.778;23.242;2023-03-26T05:07:51;6.70;;;6.10;;
8297;SDS011;4187;42.778;23.242;2023-03-26T05:10:17;6.37;;;5.87;;
8297;SDS011;4187;42.778;23.242;2023-03-26T05:12:45;7.97;;;7.07;;
8297;SDS011;4187;42.778;23.242;2023-03-26T05:15:13;7.20;;;6.50;;
8297;SDS011;4187;42.778;23.242;2023-03-26T05:17:41;6.30;;;5.80;;
8297;SDS011;4187;42.778;23.242;2023-03-26T05:20:16;5.73;;;5.23;;
8297;SDS011;4187;42.778;23.242;2023-03-26T05:22:47;6.30;;;5.70;;
8297;SDS011;4187;42.778;23.242;2023-03-26T05:25:14;7.30;;;6.57;;
8297;SDS011;4187;42.778;23.242;2023-03-26T05:27:42;10.90;;;9.27;;
8297;SDS011;4187;42.778;23.242;2023-03-26T05:30:10;7.70;;;6.00;;
8297;SDS011;4187;42.778;23.242;2023-03-26T05:32:39;7.32;;;5.75;;
8297;SDS011;4187;42.778;23.242;2023-03-26T05:35:06;6.83;;;6.23;;
8297;SDS011;4187;42.778;23.242;2023-03-26T05:37:34;5.75;;;5.25;;
8297;SDS011;4187;42.778;23.242;2023-03-26T05:40:03;5.57;;;5.07;;
8297;SDS011;4187;42.778;23.242;2023-03-26T05:42:35;6.97;;;5.82;;
8297;SDS011;4187;42.778;23.242;2023-03-26T05:45:03;8.10;;;7.30;;
8297;SDS011;4187;42.778;23.242;2023-03-26T05:47:31;7.65;;;6.85;;
8297;SDS011;4187;42.778;23.242;2023-03-26T05:49:58;10.13;;;9.13;;
8297;SDS011;4187;42.778;23.242;2023-03-26T05:52:25;10.50;;;9.48;;
8297;SDS011;4187;42.778;23.242;2023-03-26T05:54:52;9.55;;;8.65;;
8297;SDS011;4187;42.778;23.242;2023-03-26T05:57:20;6.75;;;6.15;;
8297;SDS011;4187;42.778;23.242;2023-03-26T05:59:48;6.63;;;5.90;;
8297;SDS011;4187;42.778;23.242;2023-03-26T06:02:15;6.78;;;6.18;;
8297;SDS011;4187;42.778;23.242;2023-03-26T06:04:41;5.85;;;5.28;;
8297;SDS011;4187;42.778;23.242;2023-03-26T06:07:10;5.25;;;4.85;;
8297;SDS011;4187;42.778;23.242;2023-03-26T06:09:37;18.52;;;16.73;;
8297;SDS011;4187;42.778;23.242;2023-03-26T06:12:05;13.70;;;12.52;;
8297;SDS011;4187;42.778;23.242;2023-03-26T06:14:34;27.20;;;24.55;;
8297;SDS011;4187;42.778;23.242;2023-03-26T06:17:01;27.85;;;25.60;;
8297;SDS011;4187;42.778;23.242;2023-03-26T06:19:27;10.50;;;9.70;;
8297;SDS011;4187;42.778;23.242;2023-03-26T06:21:54;8.30;;;7.60;;
8297;SDS011;4187;42.778;23.242;2023-03-26T06:24:21;6.18;;;5.68;;
8297;SDS011;4187;42.778;23.242;2023-03-26T06:26:48;7.10;;;6.45;;
8297;SDS011;4187;42.778;23.242;2023-03-26T06:29:15;7.15;;;6.45;;
8297;SDS011;4187;42.778;23.242;2023-03-26T06:31:43;7.03;;;6.38;;
8297;SDS011;4187;42.778;23.242;2023-03-26T06:34:10;6.55;;;5.95;;
8297;SDS011;4187;42.778;23.242;2023-03-26T06:36:37;7.53;;;6.82;;
8297;SDS011;4187;42.778;23.242;2023-03-26T06:39:04;7.28;;;5.93;;
8297;SDS011;4187;42.778;23.242;2023-03-26T06:41:31;6.38;;;5.88;;
8297;SDS011;4187;42.778;23.242;2023-03-26T06:43:58;6.22;;;5.65;;
8297;SDS011;4187;42.778;23.242;2023-03-26T06:46:25;5.35;;;4.95;;
8297;SDS011;4187;42.778;23.242;2023-03-26T06:48:53;5.90;;;5.40;;
8297;SDS011;4187;42.778;23.242;2023-03-26T06:51:20;6.82;;;6.13;;
8297;SDS011;4187;42.778;23.242;2023-03-26T06:53:47;7.20;;;6.50;;
8297;SDS011;4187;42.778;23.242;2023-03-26T06:56:13;7.13;;;6.53;;
8297;SDS011;4187;42.778;23.242;2023-03-26T06:58:40;8.98;;;8.07;;
8297;SDS011;4187;42.778;23.242;2023-03-26T07:01:07;7.45;;;6.65;;
8297;SDS011;4187;42.778;23.242;2023-03-26T07:03:34;7.15;;;6.32;;
8297;SDS011;4187;42.778;23.242;2023-03-26T07:06:02;7.90;;;7.10;;
8297;SDS011;4187;42.778;23.242;2023-03-26T07:08:29;6.45;;;5.40;;
8297;SDS011;4187;42.778;23.242;2023-03-26T07:10:56;5.80;;;5.30;;
8297;SDS011;4187;42.778;23.242;2023-03-26T07:13:23;6.90;;;6.30;;
8297;SDS011;4187;42.778;23.242;2023-03-26T07:15:50;10.65;;;9.48;;
8297;SDS011;4187;42.778;23.242;2023-03-26T07:18:17;7.78;;;7.00;;
8297;SDS011;4187;42.778;23.242;2023-03-26T07:20:44;6.32;;;5.63;;
8297;SDS011;4187;42.778;23.242;2023-03-26T07:23:13;8.40;;;7.50;;
8297;SDS011;4187;42.778;23.242;2023-03-26T07:25:45;6.40;;;5.80;;
8297;SDS011;4187;42.778;23.242;2023-03-26T07:28:16;5.80;;;5.30;;
8297;SDS011;4187;42.778;23.242;2023-03-26T07:30:52;5.78;;;5.00;;
8297;SDS011;4187;42.778;23.242;2023-03-26T07:33:27;5.75;;;5.25;;
8297;SDS011;4187;42.778;23.242;2023-03-26T07:36:02;5.05;;;4.25;;
8297;SDS011;4187;42.778;23.242;2023-03-26T07:38:45;4.50;;;4.10;;
8297;SDS011;4187;42.778;23.242;2023-03-26T07:41:26;4.80;;;4.30;;
8297;SDS011;4187;42.778;23.242;2023-03-26T07:44:04;8.82;;;4.75;;
8297;SDS011;4187;42.778;23.242;2023-03-26T07:46:44;5.05;;;4.30;;
8297;SDS011;4187;42.778;23.242;2023-03-26T07:49:12;5.47;;;4.97;;
8297;SDS011;4187;42.778;23.242;2023-03-26T07:51:42;9.68;;;8.82;;
8297;SDS011;4187;42.778;23.242;2023-03-26T07:54:29;6.88;;;4.40;;
8297;SDS011;4187;42.778;23.242;2023-03-26T07:56:57;5.25;;;4.13;;
8297;SDS011;4187;42.778;23.242;2023-03-26T07:59:30;4.80;;;4.40;;
8297;SDS011;4187;42.778;23.242;2023-03-26T08:02:18;5.13;;;4.50;;
8297;SDS011;4187;42.778;23.242;2023-03-26T08:05:02;5.63;;;5.13;;
8297;SDS011;4187;42.778;23.242;2023-03-26T08:07:45;10.00;;;5.95;;
8297;SDS011;4187;42.778;23.242;2023-03-26T08:10:25;19.85;;;17.77;;
8297;SDS011;4187;42.778;23.242;2023-03-26T08:12:59;5.82;;;5.25;;
8297;SDS011;4187;42.778;23.242;2023-03-26T08:15:36;4.88;;;4.45;;
8297;SDS011;4187;42.778;23.242;2023-03-26T08:18:12;7.22;;;6.47;;
8297;SDS011;4187;42.778;23.242;2023-03-26T08:20:52;6.40;;;4.63;;
8297;SDS011;4187;42.778;23.242;2023-03-26T08:23:25;6.60;;;5.53;;
8297;SDS011;4187;42.778;23.242;2023-03-26T08:26:00;6.15;;;4.22;;
8297;SDS011;4187;42.778;23.242;2023-03-26T08:28:39;5.10;;;4.00;;
8297;SDS011;4187;42.778;23.242;2023-03-26T08:31:14;6.45;;;5.07;;
8297;SDS011;4187;42.778;23.242;2023-03-26T08:33:43;6.82;;;4.82;;
8297;SDS011;4187;42.778;23.242;2023-03-26T08:36:10;11.30;;;5.95;;
8297;SDS011;4187;42.778;23.242;2023-03-26T08:38:37;5.35;;;4.63;;
8297;SDS011;4187;42.778;23.242;2023-03-26T08:44:29;3.00;;;2.70;;
8297;SDS011;4187;42.778;23.242;2023-03-26T08:56:51;5.85;;;4.00;;
8297;SDS011;4187;42.778;23.242;2023-03-26T08:59:40;5.75;;;4.13;;
8297;SDS011;4187;42.778;23.242;2023-03-26T09:11:27;4.13;;;2.95;;
8297;SDS011;4187;42.778;23.242;2023-03-26T09:14:13;2.80;;;2.20;;
8297;SDS011;4187;42.778;23.242;2023-03-26T09:17:15;2.20;;;2.00;;
8297;SDS011;4187;42.778;23.242;2023-03-26T09:20:24;2.65;;;2.35;;
8297;SDS011;4187;42.778;23.242;2023-03-26T09:26:17;3.17;;;2.88;;
8297;SDS011;4187;42.778;23.242;2023-03-26T09:32:02;3.47;;;2.13;;
8297;SDS011;4187;42.778;23.242;2023-03-26T09:34:54;2.38;;;2.10;;
8297;SDS011;4187;42.778;23.242;2023-03-26T09:37:38;2.53;;;2.17;;
8297;SDS011;4187;42.778;23.242;2023-03-26T09:40:19;1.92;;;1.58;;
8297;SDS011;4187;42.778;23.242;2023-03-26T09:42:52;2.22;;;1.80;;
8297;SDS011;4187;42.778;23.242;2023-03-26T09:45:31;2.17;;;1.92;;
8297;SDS011;4187;42.778;23.242;2023-03-26T09:48:12;2.95;;;2.33;;
8297;SDS011;4187;42.778;23.242;2023-03-26T09:51:13;1.70;;;1.58;;
8297;SDS011;4187;42.778;23.242;2023-03-26T09:54:03;2.35;;;1.67;;
8297;SDS011;4187;42.778;23.242;2023-03-26T09:56:40;4.68;;;4.28;;
8297;SDS011;4187;42.778;23.242;2023-03-26T09:59:26;2.17;;;1.92;;
8297;SDS011;4187;42.778;23.242;2023-03-26T10:02:25;2.13;;;1.40;;
8297;SDS011;4187;42.778;23.242;2023-03-26T10:05:31;2.78;;;2.00;;
8297;SDS011;4187;42.778;23.242;2023-03-26T10:11:10;1.75;;;1.52;;
8297;SDS011;4187;42.778;23.242;2023-03-26T10:13:49;2.70;;;1.55;;
8297;SDS011;4187;42.778;23.242;2023-03-26T10:16:23;3.65;;;1.85;;
8297;SDS011;4187;42.778;23.242;2023-03-26T10:18:59;2.05;;;1.55;;
8297;SDS011;4187;42.778;23.242;2023-03-26T10:21:39;1.70;;;1.20;;
8297;SDS011;4187;42.778;23.242;2023-03-26T10:24:25;1.23;;;1.00;;
8297;SDS011;4187;42.778;23.242;2023-03-26T10:27:05;3.78;;;1.48;;
8297;SDS011;4187;42.778;23.242;2023-03-26T10:32:53;3.10;;;1.70;;
8297;SDS011;4187;42.778;23.242;2023-03-26T10:35:32;1.33;;;1.17;;
8297;SDS011;4187;42.778;23.242;2023-03-26T10:38:14;2.92;;;1.50;;
8297;SDS011;4187;42.778;23.242;2023-03-26T10:40:53;2.33;;;1.67;;
8297;SDS011;4187;42.778;23.242;2023-03-26T10:46:23;1.88;;;1.30;;
8297;SDS011;4187;42.778;23.242;2023-03-26T10:51:58;2.95;;;1.83;;
8297;SDS011;4187;42.778;23.242;2023-03-26T10:54:32;1.60;;;1.40;;
8297;SDS011;4187;42.778;23.242;2023-03-26T10:57:09;2.72;;;1.95;;
8297;SDS011;4187;42.778;23.242;2023-03-26T10:59:43;3.13;;;2.22;;
8297;SDS011;4187;42.778;23.242;2023-03-26T11:02:19;2.85;;;1.55;;
8297;SDS011;4187;42.778;23.242;2023-03-26T11:04:59;1.77;;;1.05;;
8297;SDS011;4187;42.778;23.242;2023-03-26T11:07:43;2.58;;;1.77;;
8297;SDS011;4187;42.778;23.242;2023-03-26T11:10:19;1.27;;;0.98;;
8297;SDS011;4187;42.778;23.242;2023-03-26T11:12:56;1.50;;;1.00;;
8297;SDS011;4187;42.778;23.242;2023-03-26T11:15:34;1.27;;;1.15;;
8297;SDS011;4187;42.778;23.242;2023-03-26T11:18:07;1.80;;;1.15;;
8297;SDS011;4187;42.778;23.242;2023-03-26T11:20:40;11.70;;;10.57;;
8297;SDS011;4187;42.778;23.242;2023-03-26T11:23:18;4.50;;;3.47;;
8297;SDS011;4187;42.778;23.242;2023-03-26T11:25:57;3.78;;;3.15;;
8297;SDS011;4187;42.778;23.242;2023-03-26T11:28:35;2.65;;;2.45;;
8297;SDS011;4187;42.778;23.242;2023-03-26T11:31:16;1.15;;;0.90;;
8297;SDS011;4187;42.778;23.242;2023-03-26T11:33:52;3.67;;;2.90;;
8297;SDS011;4187;42.778;23.242;2023-03-26T11:36:22;2.80;;;1.98;;
8297;SDS011;4187;42.778;23.242;2023-03-26T11:38:56;5.07;;;3.33;;
8297;SDS011;4187;42.778;23.242;2023-03-26T11:41:26;2.42;;;2.03;;
8297;SDS011;4187;42.778;23.242;2023-03-26T11:43:57;5.65;;;3.78;;
8297;SDS011;4187;42.778;23.242;2023-03-26T11:46:29;4.15;;;2.20;;
8297;SDS011;4187;42.778;23.242;2023-03-26T11:49:00;3.00;;;2.25;;
8297;SDS011;4187;42.778;23.242;2023-03-26T11:51:31;1.85;;;1.33;;
8297;SDS011;4187;42.778;23.242;2023-03-26T11:54:00;1.42;;;1.10;;
8297;SDS011;4187;42.778;23.242;2023-03-26T11:56:28;2.85;;;1.23;;
8297;SDS011;4187;42.778;23.242;2023-03-26T11:59:00;3.15;;;1.20;;
8297;SDS011;4187;42.778;23.242;2023-03-26T12:01:39;4.32;;;1.40;;
8297;SDS011;4187;42.778;23.242;2023-03-26T12:04:09;2.33;;;2.13;;
8297;SDS011;4187;42.778;23.242;2023-03-26T12:06:38;3.20;;;2.30;;
8297;SDS011;4187;42.778;23.242;2023-03-26T12:09:16;7.63;;;2.55;;
8297;SDS011;4187;42.778;23.242;2023-03-26T12:11:44;2.78;;;2.55;;
8297;SDS011;4187;42.778;23.242;2023-03-26T12:14:17;3.85;;;3.08;;
8297;SDS011;4187;42.778;23.242;2023-03-26T12:16:56;1.55;;;1.30;;
8297;SDS011;4187;42.778;23.242;2023-03-26T12:19:33;5.63;;;1.63;;
8297;SDS011;4187;42.778;23.242;2023-03-26T12:22:03;1.88;;;1.20;;
8297;SDS011;4187;42.778;23.242;2023-03-26T12:24:31;1.73;;;1.13;;
8297;SDS011;4187;42.778;23.242;2023-03-26T12:27:00;1.20;;;1.00;;
8297;SDS011;4187;42.778;23.242;2023-03-26T12:29:50;0.88;;;0.70;;
8297;SDS011;4187;42.778;23.242;2023-03-26T12:32:26;1.58;;;1.33;;
8297;SDS011;4187;42.778;23.242;2023-03-26T12:34:57;5.25;;;4.75;;
8297;SDS011;4187;42.778;23.242;2023-03-26T12:37:32;6.15;;;5.28;;
8297;SDS011;4187;42.778;23.242;2023-03-26T12:40:05;20.60;;;17.83;;
8297;SDS011;4187;42.778;23.242;2023-03-26T12:42:38;1.83;;;1.27;;
8297;SDS011;4187;42.778;23.242;2023-03-26T12:45:12;5.55;;;2.80;;
8297;SDS011;4187;42.778;23.242;2023-03-26T12:47:39;4.93;;;3.72;;
8297;SDS011;4187;42.778;23.242;2023-03-26T12:50:10;8.65;;;5.88;;
8297;SDS011;4187;42.778;23.242;2023-03-26T12:52:43;1.45;;;1.10;;
8297;SDS011;4187;42.778;23.242;2023-03-26T12:55:30;1.85;;;1.30;;
8297;SDS011;4187;42.778;23.242;2023-03-26T12:58:11;2.88;;;2.30;;
8297;SDS011;4187;42.778;23.242;2023-03-26T13:01:00;5.75;;;3.67;;
8297;SDS011;4187;42.778;23.242;2023-03-26T13:03:42;9.20;;;6.05;;
8297;SDS011;4187;42.778;23.242;2023-03-26T13:06:30;7.05;;;4.60;;
8297;SDS011;4187;42.778;23.242;2023-03-26T13:09:23;3.47;;;2.90;;
8297;SDS011;4187;42.778;23.242;2023-03-26T13:12:20;1.98;;;1.75;;
8297;SDS011;4187;42.778;23.242;2023-03-26T13:15:15;3.45;;;2.42;;
8297;SDS011;4187;42.778;23.242;2023-03-26T13:17:52;4.97;;;4.45;;
8297;SDS011;4187;42.778;23.242;2023-03-26T13:20:30;28.98;;;19.58;;
8297;SDS011;4187;42.778;23.242;2023-03-26T13:23:09;4.25;;;3.13;;
8297;SDS011;4187;42.778;23.242;2023-03-26T13:25:45;8.63;;;6.00;;
8297;SDS011;4187;42.778;23.242;2023-03-26T13:28:19;7.55;;;4.40;;
8297;SDS011;4187;42.778;23.242;2023-03-26T13:30:59;2.75;;;1.60;;
8297;SDS011;4187;42.778;23.242;2023-03-26T13:33:34;2.00;;;1.30;;
8297;SDS011;4187;42.778;23.242;2023-03-26T13:36:12;3.50;;;2.33;;
8297;SDS011;4187;42.778;23.242;2023-03-26T13:38:47;3.72;;;1.80;;
8297;SDS011;4187;42.778;23.242;2023-03-26T13:41:23;5.30;;;2.50;;
8297;SDS011;4187;42.778;23.242;2023-03-26T13:44:10;1.60;;;1.00;;
8297;SDS011;4187;42.778;23.242;2023-03-26T13:46:49;2.60;;;1.15;;
8297;SDS011;4187;42.778;23.242;2023-03-26T13:49:26;4.63;;;1.80;;
8297;SDS011;4187;42.778;23.242;2023-03-26T13:52:01;1.27;;;1.00;;
8297;SDS011;4187;42.778;23.242;2023-03-26T13:54:33;1.02;;;0.93;;
8297;SDS011;4187;42.778;23.242;2023-03-26T13:57:06;1.35;;;0.90;;
8297;SDS011;4187;42.778;23.242;2023-03-26T13:59:37;1.58;;;0.90;;
8297;SDS011;4187;42.778;23.242;2023-03-26T14:02:10;3.30;;;1.00;;
8297;SDS011;4187;42.778;23.242;2023-03-26T14:04:45;0.68;;;0.60;;
8297;SDS011;4187;42.778;23.242;2023-03-26T14:07:16;1.23;;;0.85;;
8297;SDS011;4187;42.778;23.242;2023-03-26T14:09:50;1.65;;;0.93;;
8297;SDS011;4187;42.778;23.242;2023-03-26T14:12:28;1.58;;;1.20;;
8297;SDS011;4187;42.778;23.242;2023-03-26T14:15:04;2.00;;;0.93;;
8297;SDS011;4187;42.778;23.242;2023-03-26T14:17:37;3.22;;;2.08;;
8297;SDS011;4187;42.778;23.242;2023-03-26T14:23:33;1.27;;;1.10;;
8297;SDS011;4187;42.778;23.242;2023-03-26T14:26:19;2.17;;;1.98;;
8297;SDS011;4187;42.778;23.242;2023-03-26T14:31:56;1.63;;;0.80;;
8297;SDS011;4187;42.778;23.242;2023-03-26T14:34:46;0.93;;;0.80;;
8297;SDS011;4187;42.778;23.242;2023-03-26T14:37:40;1.25;;;0.63;;
8297;SDS011;4187;42.778;23.242;2023-03-26T14:40:27;1.00;;;0.70;;
8297;SDS011;4187;42.778;23.242;2023-03-26T14:43:03;0.95;;;0.80;;
8297;SDS011;4187;42.778;23.242;2023-03-26T14:45:50;1.75;;;0.73;;
8297;SDS011;4187;42.778;23.242;2023-03-26T14:51:33;1.70;;;1.60;;
8297;SDS011;4187;42.778;23.242;2023-03-26T14:54:20;0.95;;;0.90;;
8297;SDS011;4187;42.778;23.242;2023-03-26T14:56:52;1.10;;;0.68;;
8297;SDS011;4187;42.778;23.242;2023-03-26T15:00:02;1.95;;;1.70;;
8297;SDS011;4187;42.778;23.242;2023-03-26T15:03:01;2.20;;;1.67;;
8297;SDS011;4187;42.778;23.242;2023-03-26T15:09:17;1.30;;;0.85;;
8297;SDS011;4187;42.778;23.242;2023-03-26T15:12:11;1.10;;;0.73;;
8297;SDS011;4187;42.778;23.242;2023-03-26T15:27:34;1.65;;;0.90;;
8297;SDS011;4187;42.778;23.242;2023-03-26T15:30:21;1.30;;;1.00;;
8297;SDS011;4187;42.778;23.242;2023-03-26T15:33:31;1.40;;;1.30;;
8297;SDS011;4187;42.778;23.242;2023-03-26T15:36:31;2.25;;;2.05;;
8297;SDS011;4187;42.778;23.242;2023-03-26T15:39:26;1.95;;;1.38;;
8297;SDS011;4187;42.778;23.242;2023-03-26T15:42:15;3.20;;;2.45;;
8297;SDS011;4187;42.778;23.242;2023-03-26T15:44:53;5.25;;;2.85;;
8297;SDS011;4187;42.778;23.242;2023-03-26T15:47:45;3.10;;;2.58;;
8297;SDS011;4187;42.778;23.242;2023-03-26T15:50:25;2.22;;;1.88;;
8297;SDS011;4187;42.778;23.242;2023-03-26T15:53:22;2.20;;;1.73;;
8297;SDS011;4187;42.778;23.242;2023-03-26T15:56:04;2.78;;;1.98;;
8297;SDS011;4187;42.778;23.242;2023-03-26T15:58:41;4.82;;;1.50;;
8297;SDS011;4187;42.778;23.242;2023-03-26T16:01:19;2.03;;;1.42;;
8297;SDS011;4187;42.778;23.242;2023-03-26T16:04:00;1.40;;;1.30;;
8297;SDS011;4187;42.778;23.242;2023-03-26T16:06:40;3.60;;;1.20;;
8297;SDS011;4187;42.778;23.242;2023-03-26T16:12:32;3.20;;;1.35;;
8297;SDS011;4187;42.778;23.242;2023-03-26T16:15:14;1.55;;;1.25;;
8297;SDS011;4187;42.778;23.242;2023-03-26T16:24:20;2.65;;;2.13;;
8297;SDS011;4187;42.778;23.242;2023-03-26T16:33:02;4.28;;;1.70;;
8297;SDS011;4187;42.778;23.242;2023-03-26T16:35:41;6.85;;;2.92;;
8297;SDS011;4187;42.778;23.242;2023-03-26T16:38:28;8.27;;;4.78;;
8297;SDS011;4187;42.778;23.242;2023-03-26T16:41:14;19.10;;;13.45;;
8297;SDS011;4187;42.778;23.242;2023-03-26T16:43:45;20.50;;;12.65;;
8297;SDS011;4187;42.778;23.242;2023-03-26T16:46:26;14.52;;;10.32;;
8297;SDS011;4187;42.778;23.242;2023-03-26T16:49:02;17.00;;;10.25;;
8297;SDS011;4187;42.778;23.242;2023-03-26T16:54:34;70.70;;;56.03;;
8297;SDS011;4187;42.778;23.242;2023-03-26T16:57:19;42.17;;;30.23;;
8297;SDS011;4187;42.778;23.242;2023-03-26T17:02:56;326.65;;;184.07;;
8297;SDS011;4187;42.778;23.242;2023-03-26T17:05:42;224.60;;;145.52;;
8297;SDS011;4187;42.778;23.242;2023-03-26T17:08:24;409.35;;;312.30;;
8297;SDS011;4187;42.778;23.242;2023-03-26T17:10:59;136.35;;;97.93;;